Terminal Aerodrome Forecast
Issued by NWS

Home | Current Version | Previous Version | Text Only | Print | Product List | Glossary On
Versions: 1 2 3 4 5 6 7 8 9 10 11 12 13
000
FTUS46 KSEW 182320
TAFOLM
TAF
KOLM 182320Z 1900/1924 19010KT P6SM -SHRA BKN035 BKN080
     FM190600 18008KT P6SM VCSH BKN040 BKN080
     FM191700 18006KT P6SM SCT050 SCT100=

USA.gov is the U.S. government's official web portal to all federal, state and local government web resources and services.